Time;durP1;ratioP1;P1;durP2;ratioP2;P2;SDS_P1;SDS_P2;PMS_P1;PMS_P2;Temp;Humidity;BMP_temperature;BMP_pressure;BME280_temperature;BME280_humidity;BME280_pressure;Samples;Min_cycle;Max_cycle;Signal;HPM_P1;HPM_P2
2021/09/11 00:00:58;;;;;;;21.13;18.52;;;16.00;99.90;;;;;;4997247;28;20054;-85
2021/09/11 00:03:25;;;;;;;22.48;18.27;;;15.90;99.90;;;;;;4996235;28;20054;-85
2021/09/11 00:05:52;;;;;;;21.27;18.90;;;15.90;99.90;;;;;;5013492;28;20108;-85
2021/09/11 00:08:18;;;;;;;23.27;20.20;;;15.90;99.90;;;;;;4995990;28;20058;-85
2021/09/11 00:10:45;;;;;;;21.63;19.42;;;16.00;99.90;;;;;;4996094;28;20046;-85
2021/09/11 00:13:12;;;;;;;22.48;20.02;;;15.90;99.90;;;;;;4995795;28;20060;-85
2021/09/11 00:15:39;;;;;;;23.67;20.80;;;15.90;99.90;;;;;;4996446;28;20046;-85
2021/09/11 00:18:06;;;;;;;23.55;20.20;;;15.90;99.90;;;;;;4996426;28;20054;-84
2021/09/11 00:20:33;;;;;;;25.73;22.45;;;15.90;99.90;;;;;;4996073;28;20050;-85
2021/09/11 00:23:01;;;;;;;26.02;21.42;;;15.90;99.90;;;;;;4995900;28;20054;-85
2021/09/11 00:25:28;;;;;;;24.27;20.90;;;15.80;99.90;;;;;;4999058;28;20497;-85
2021/09/11 00:27:55;;;;;;;22.77;20.38;;;15.70;99.90;;;;;;5000072;28;20050;-85
2021/09/11 00:30:22;;;;;;;23.27;20.80;;;15.80;99.90;;;;;;5017086;28;20128;-84
2021/09/11 00:32:49;;;;;;;23.70;21.08;;;15.80;99.90;;;;;;4999593;28;20050;-85
2021/09/11 00:35:17;;;;;;;25.10;21.45;;;15.80;99.90;;;;;;4999659;28;20045;-84
2021/09/11 00:37:45;;;;;;;26.75;22.23;;;15.70;99.90;;;;;;4999546;28;20061;-85
2021/09/11 00:40:13;;;;;;;24.65;22.05;;;15.70;99.90;;;;;;4999515;28;20077;-85
2021/09/11 00:42:46;;;;;;;26.85;21.77;;;15.70;99.90;;;;;;5005850;28;20053;-86
2021/09/11 00:45:16;;;;;;;25.48;21.92;;;15.70;99.90;;;;;;5007373;28;20054;-85
2021/09/11 00:47:43;;;;;;;26.83;22.73;;;15.70;99.90;;;;;;5016697;28;20085;-85
2021/09/11 00:50:11;;;;;;;32.58;22.08;;;15.60;99.90;;;;;;5016641;28;20067;-85
2021/09/11 00:52:41;;;;;;;22.92;20.58;;;15.60;99.90;;;;;;4999449;28;20060;-85
2021/09/11 00:55:09;;;;;;;25.10;21.67;;;15.60;99.90;;;;;;5016705;28;20046;-84
2021/09/11 00:57:39;;;;;;;32.47;24.38;;;15.60;99.90;;;;;;5016688;28;20145;-85
2021/09/11 01:00:07;;;;;;;30.15;24.83;;;15.50;99.90;;;;;;5016596;28;20080;-84
2021/09/11 01:02:34;;;;;;;31.73;23.63;;;15.50;99.90;;;;;;4999126;28;20062;-85
2021/09/11 01:05:07;;;;;;;27.52;23.92;;;15.60;99.90;;;;;;4999355;28;20470;-84
2021/09/11 01:07:37;;;;;;;28.58;23.45;;;15.60;99.90;;;;;;4998778;28;20140;-85
2021/09/11 01:10:04;;;;;;;27.35;22.90;;;15.70;99.90;;;;;;4999125;28;20058;-85
2021/09/11 01:12:31;;;;;;;25.83;23.05;;;15.80;99.90;;;;;;5016076;28;20053;-85
2021/09/11 01:15:03;;;;;;;27.77;23.77;;;15.80;99.90;;;;;;4998898;28;20049;-85
2021/09/11 01:17:30;;;;;;;25.33;22.70;;;15.80;99.90;;;;;;4998682;28;20074;-85
2021/09/11 01:19:57;;;;;;;29.00;23.67;;;15.80;99.90;;;;;;4998768;28;20137;-84
2021/09/11 01:22:24;;;;;;;29.77;24.52;;;15.70;99.90;;;;;;5015846;28;20521;-85
2021/09/11 01:25:01;;;;;;;28.30;24.08;;;15.60;99.90;;;;;;4998456;28;20050;-85
2021/09/11 01:27:29;;;;;;;27.70;23.13;;;15.70;99.90;;;;;;4998642;28;20505;-85
2021/09/11 01:29:59;;;;;;;29.27;23.92;;;15.70;99.90;;;;;;5015953;28;20136;-84
2021/09/11 01:32:28;;;;;;;23.95;21.40;;;15.70;99.90;;;;;;4998335;28;20049;-85
2021/09/11 01:34:54;;;;;;;27.08;21.88;;;15.60;99.90;;;;;;4998306;28;20057;-85
2021/09/11 01:37:21;;;;;;;26.33;22.77;;;15.70;99.90;;;;;;4997885;28;20064;-85
2021/09/11 01:39:49;;;;;;;24.30;21.65;;;15.70;99.90;;;;;;5015924;28;20052;-85
2021/09/11 01:42:18;;;;;;;23.23;20.83;;;15.70;99.90;;;;;;4998446;28;20050;-84
2021/09/11 01:44:50;;;;;;;25.95;22.15;;;15.70;99.90;;;;;;5015649;28;20049;-84
2021/09/11 01:47:16;;;;;;;25.33;21.08;;;15.60;99.90;;;;;;5015493;28;20072;-84
2021/09/11 01:49:43;;;;;;;28.25;25.17;;;15.60;99.90;;;;;;4998281;28;20052;-84
2021/09/11 01:52:11;;;;;;;32.90;25.35;;;15.50;99.90;;;;;;5015642;28;20054;-84
2021/09/11 01:54:39;;;;;;;32.28;25.08;;;15.60;99.90;;;;;;5015088;28;20057;-85
2021/09/11 01:57:07;;;;;;;29.40;26.08;;;15.60;99.90;;;;;;5015099;28;20052;-84
2021/09/11 01:59:35;;;;;;;26.33;23.55;;;15.60;99.90;;;;;;5015249;28;20088;-84
2021/09/11 02:02:04;;;;;;;27.15;23.35;;;15.60;99.90;;;;;;5018853;28;20118;-85
2021/09/11 02:04:32;;;;;;;28.80;24.90;;;15.60;99.90;;;;;;5018923;28;20050;-85
2021/09/11 02:06:59;;;;;;;31.05;25.17;;;15.60;99.90;;;;;;5014986;28;20137;-84
2021/09/11 02:09:26;;;;;;;28.40;24.35;;;15.60;99.90;;;;;;4997709;28;20050;-84
2021/09/11 02:11:52;;;;;;;26.23;23.35;;;15.60;99.90;;;;;;5015059;28;20042;-84
2021/09/11 02:14:19;;;;;;;27.58;23.50;;;15.60;99.90;;;;;;4997756;28;20049;-84
2021/09/11 02:16:46;;;;;;;26.38;23.63;;;15.60;99.90;;;;;;4997707;28;20133;-84
2021/09/11 02:19:13;;;;;;;28.35;22.80;;;15.60;99.90;;;;;;4997614;28;20064;-84
2021/09/11 02:21:40;;;;;;;26.05;23.25;;;15.60;99.90;;;;;;5014793;28;20045;-84
2021/09/11 02:24:07;;;;;;;32.90;24.90;;;15.70;99.90;;;;;;5014700;28;20482;-84
2021/09/11 02:26:35;;;;;;;25.85;23.15;;;15.60;99.90;;;;;;4997556;28;20050;-84
2021/09/11 02:29:03;;;;;;;30.38;24.42;;;15.60;99.90;;;;;;4997437;28;20050;-84
2021/09/11 02:31:30;;;;;;;32.10;25.27;;;15.60;99.90;;;;;;5014766;28;20052;-85
2021/09/11 02:33:57;;;;;;;33.90;26.05;;;15.60;99.90;;;;;;4997362;28;20054;-84
2021/09/11 02:36:24;;;;;;;26.30;23.55;;;15.60;99.90;;;;;;4997356;28;20052;-84
2021/09/11 02:38:51;;;;;;;30.55;23.83;;;15.60;99.90;;;;;;4997057;28;20046;-84
2021/09/11 02:41:17;;;;;;;25.65;22.95;;;15.60;99.90;;;;;;4997181;28;20050;-84
2021/09/11 02:43:44;;;;;;;25.50;22.85;;;15.60;99.90;;;;;;4997086;28;20185;-85
2021/09/11 02:46:11;;;;;;;30.27;24.08;;;15.70;99.90;;;;;;5014133;28;20046;-84
2021/09/11 02:48:38;;;;;;;32.53;25.70;;;15.60;99.90;;;;;;4996010;28;20054;-84
2021/09/11 02:51:04;;;;;;;28.55;24.13;;;15.50;99.90;;;;;;4997047;28;20054;-84
2021/09/11 02:53:31;;;;;;;32.00;25.00;;;15.50;99.90;;;;;;5014197;28;20554;-84
2021/09/11 02:55:58;;;;;;;30.08;25.00;;;15.50;99.90;;;;;;4996929;28;20050;-84
2021/09/11 02:58:25;;;;;;;28.88;25.40;;;15.50;99.90;;;;;;5014100;28;20060;-84
2021/09/11 03:00:52;;;;;;;33.17;25.50;;;15.60;99.90;;;;;;5014048;28;20418;-84
2021/09/11 03:03:19;;;;;;;28.30;24.65;;;15.50;99.90;;;;;;4996845;28;20050;-85
2021/09/11 03:05:46;;;;;;;33.55;26.70;;;15.60;99.90;;;;;;4996802;28;20046;-84
2021/09/11 03:08:14;;;;;;;30.10;24.73;;;15.50;99.90;;;;;;4996638;28;20454;-84
2021/09/11 03:10:45;;;;;;;31.50;24.77;;;15.50;99.90;;;;;;4997398;28;20050;-85
2021/09/11 03:13:12;;;;;;;27.35;24.30;;;15.50;99.90;;;;;;5013785;28;20046;-85
2021/09/11 03:15:38;;;;;;;27.15;23.77;;;15.50;99.90;;;;;;5013960;28;20088;-84
2021/09/11 03:18:05;;;;;;;26.00;23.10;;;15.50;99.90;;;;;;5014074;28;20056;-85
2021/09/11 03:20:32;;;;;;;31.02;25.65;;;15.50;99.90;;;;;;4997052;28;20054;-85
2021/09/11 03:22:59;;;;;;;25.80;23.17;;;15.50;99.90;;;;;;5024782;28;20060;-85
2021/09/11 03:25:25;;;;;;;31.17;23.60;;;15.60;99.90;;;;;;4996196;28;20482;-84
2021/09/11 03:27:52;;;;;;;26.83;22.58;;;15.60;99.90;;;;;;4996562;28;20053;-84
2021/09/11 03:30:19;;;;;;;27.77;21.70;;;15.60;99.90;;;;;;5013560;28;20081;-85
2021/09/11 03:32:46;;;;;;;26.05;23.20;;;15.60;99.90;;;;;;4996374;28;20053;-85
2021/09/11 03:35:13;;;;;;;24.83;22.35;;;15.60;99.90;;;;;;4996593;28;20574;-85
2021/09/11 03:37:40;;;;;;;26.77;22.77;;;15.70;99.90;;;;;;4996606;28;20545;-84
2021/09/11 03:40:08;;;;;;;28.42;24.33;;;15.70;99.90;;;;;;5013725;28;20501;-85
2021/09/11 03:42:35;;;;;;;24.75;22.05;;;15.70;99.90;;;;;;4996332;28;20414;-84
2021/09/11 03:45:02;;;;;;;29.35;22.85;;;15.70;99.90;;;;;;4996400;28;20132;-85
2021/09/11 03:47:29;;;;;;;35.80;24.95;;;15.60;99.90;;;;;;5013600;28;20096;-84
2021/09/11 03:49:56;;;;;;;24.52;21.35;;;15.70;99.90;;;;;;5013586;28;20137;-84
2021/09/11 03:52:22;;;;;;;26.73;22.20;;;15.60;99.90;;;;;;5013610;28;20391;-85
2021/09/11 03:54:49;;;;;;;26.08;23.27;;;15.60;99.90;;;;;;5013572;28;20078;-84
2021/09/11 03:57:16;;;;;;;29.52;22.10;;;15.60;99.90;;;;;;5013403;28;20045;-84
2021/09/11 03:59:43;;;;;;;27.27;22.67;;;15.60;99.90;;;;;;5015526;28;20056;-85
2021/09/11 04:02:10;;;;;;;26.63;21.67;;;15.60;99.90;;;;;;5000225;28;20499;-84
2021/09/11 04:04:37;;;;;;;26.15;22.55;;;15.60;99.90;;;;;;5017984;28;20063;-85
2021/09/11 04:07:04;;;;;;;30.33;24.75;;;15.60;99.90;;;;;;5016267;28;20050;-85
2021/09/11 04:09:30;;;;;;;24.63;22.10;;;15.50;99.90;;;;;;4999747;28;20054;-84
2021/09/11 04:11:57;;;;;;;24.80;22.20;;;15.50;99.90;;;;;;5016917;28;20050;-85
2021/09/11 04:14:24;;;;;;;24.40;21.77;;;15.60;99.90;;;;;;4999542;28;20108;-85
2021/09/11 04:16:51;;;;;;;23.95;21.50;;;15.60;99.90;;;;;;4999600;28;20479;-84
2021/09/11 04:19:18;;;;;;;26.05;21.77;;;15.60;99.90;;;;;;4999682;28;20512;-85
2021/09/11 04:21:45;;;;;;;22.65;20.25;;;15.60;99.90;;;;;;4999767;28;20400;-85
2021/09/11 04:24:12;;;;;;;23.95;21.35;;;15.60;99.90;;;;;;5016436;28;20085;-82
2021/09/11 04:26:39;;;;;;;25.40;22.25;;;15.50;99.90;;;;;;5016468;28;20362;-85
2021/09/11 04:29:06;;;;;;;25.95;22.77;;;15.50;99.90;;;;;;4999603;28;20056;-85
2021/09/11 04:31:33;;;;;;;23.90;21.33;;;15.40;99.90;;;;;;4997199;28;20046;-84
2021/09/11 04:34:00;;;;;;;23.63;20.02;;;15.40;99.90;;;;;;5016019;28;20060;-85
2021/09/11 04:36:27;;;;;;;24.55;20.83;;;15.40;99.90;;;;;;5016255;28;20140;-84
2021/09/11 04:38:53;;;;;;;29.33;22.30;;;15.40;99.90;;;;;;4999647;28;20510;-85
2021/09/11 04:41:20;;;;;;;27.33;21.48;;;15.30;99.90;;;;;;5011976;28;20050;-85
2021/09/11 04:43:47;;;;;;;27.55;22.98;;;15.30;99.90;;;;;;5017453;28;20137;-85
2021/09/11 04:46:13;;;;;;;23.77;21.20;;;15.30;99.90;;;;;;4999046;28;20045;-85
2021/09/11 04:48:40;;;;;;;24.23;21.73;;;15.30;99.90;;;;;;4999185;28;20507;-84
2021/09/11 04:51:07;;;;;;;31.95;24.08;;;15.30;99.90;;;;;;4999044;28;20088;-85
2021/09/11 04:53:34;;;;;;;30.55;25.15;;;15.30;99.90;;;;;;4998834;28;20049;-85
2021/09/11 04:56:01;;;;;;;30.13;23.48;;;15.20;99.90;;;;;;5016335;28;20089;-85
2021/09/11 04:58:28;;;;;;;27.50;24.05;;;15.20;99.90;;;;;;4998840;28;20046;-84
2021/09/11 05:00:55;;;;;;;32.53;26.52;;;15.30;99.90;;;;;;4998794;28;20045;-84
2021/09/11 05:03:21;;;;;;;27.38;24.42;;;15.40;99.90;;;;;;5016304;28;20050;-85
2021/09/11 05:05:49;;;;;;;28.80;24.58;;;15.40;99.90;;;;;;5016063;28;20049;-85
2021/09/11 05:08:17;;;;;;;31.17;26.42;;;15.50;99.90;;;;;;4995141;28;20101;-85
2021/09/11 05:10:45;;;;;;;31.83;25.67;;;15.50;99.90;;;;;;4994380;28;20125;-85
2021/09/11 05:13:13;;;;;;;30.90;26.67;;;15.50;99.90;;;;;;4995389;28;20073;-85
2021/09/11 05:15:40;;;;;;;28.17;25.08;;;15.60;99.90;;;;;;4996332;28;20076;-85
2021/09/11 05:18:06;;;;;;;30.55;26.20;;;15.60;99.90;;;;;;4994752;28;20499;-85
2021/09/11 05:20:33;;;;;;;30.92;26.30;;;15.70;99.90;;;;;;4994969;28;20145;-85
2021/09/11 05:23:00;;;;;;;35.03;27.73;;;15.70;99.90;;;;;;4995262;28;20065;-86
2021/09/11 05:25:27;;;;;;;35.50;28.10;;;15.80;99.90;;;;;;4994989;28;20507;-85
2021/09/11 05:27:54;;;;;;;42.55;32.17;;;15.90;99.90;;;;;;4996142;28;20491;-86
2021/09/11 05:30:21;;;;;;;31.45;26.95;;;15.90;99.90;;;;;;4995204;28;20418;-85
2021/09/11 05:32:48;;;;;;;30.02;26.60;;;16.00;99.90;;;;;;4995096;28;20053;-85
2021/09/11 05:35:15;;;;;;;28.65;25.67;;;16.00;99.90;;;;;;4995596;28;20145;-86
2021/09/11 05:37:42;;;;;;;26.55;23.70;;;16.00;99.90;;;;;;4995009;28;20135;-86
2021/09/11 05:40:09;;;;;;;24.95;22.45;;;16.00;99.90;;;;;;4995120;28;20418;-86
2021/09/11 05:42:36;;;;;;;27.33;24.38;;;16.10;99.90;;;;;;4996252;28;20068;-87
2021/09/11 05:45:05;;;;;;;24.40;22.05;;;16.10;99.90;;;;;;4995210;28;20392;-87
2021/09/11 05:47:34;;;;;;;25.10;22.50;;;16.10;99.90;;;;;;4995014;28;20137;-86
2021/09/11 05:50:00;;;;;;;24.17;21.67;;;16.20;99.90;;;;;;4995044;28;20060;-86
2021/09/11 05:52:27;;;;;;;22.73;20.38;;;16.30;99.90;;;;;;4995107;28;20133;-86
2021/09/11 05:54:54;;;;;;;22.80;20.50;;;16.30;99.90;;;;;;4996668;28;20069;-87
2021/09/11 05:57:24;;;;;;;22.98;20.63;;;16.40;99.90;;;;;;4997329;28;20061;-87
2021/09/11 05:59:51;;;;;;;21.77;19.20;;;16.40;99.90;;;;;;5003665;28;20053;-85
2021/09/11 06:02:18;;;;;;;24.63;21.70;;;16.30;99.90;;;;;;5001803;28;20061;-86
2021/09/11 06:04:46;;;;;;;26.88;21.63;;;16.30;99.90;;;;;;4995004;28;20107;-87
2021/09/11 06:07:13;;;;;;;24.13;21.13;;;16.30;99.90;;;;;;4995829;28;20418;-87
2021/09/11 06:09:40;;;;;;;22.42;20.05;;;16.30;99.90;;;;;;4995531;28;20050;-87
2021/09/11 06:12:10;;;;;;;27.15;22.73;;;16.40;99.90;;;;;;4995565;28;20047;-87
2021/09/11 06:14:38;;;;;;;24.00;21.42;;;16.50;99.90;;;;;;4994201;28;20050;-87
2021/09/11 06:17:07;;;;;;;23.58;21.27;;;16.50;99.90;;;;;;4995463;28;20050;-88
2021/09/11 06:19:35;;;;;;;26.42;22.17;;;16.40;99.90;;;;;;4994820;28;20082;-88
2021/09/11 06:22:03;;;;;;;26.83;21.23;;;16.50;99.90;;;;;;4994430;28;20403;-89
2021/09/11 06:24:30;;;;;;;30.23;22.52;;;16.50;99.90;;;;;;4994573;28;20054;-87
2021/09/11 06:26:57;;;;;;;23.88;21.15;;;16.50;99.90;;;;;;4993852;28;20145;-88
2021/09/11 06:29:24;;;;;;;25.92;23.05;;;16.60;99.90;;;;;;4993263;28;20055;-88
2021/09/11 06:31:50;;;;;;;27.40;21.75;;;16.60;99.90;;;;;;4994407;28;20414;-87
2021/09/11 06:34:17;;;;;;;27.88;23.13;;;16.70;99.90;;;;;;4993899;28;20097;-87
2021/09/11 06:36:44;;;;;;;24.75;22.15;;;16.70;99.90;;;;;;4994179;28;20053;-87
2021/09/11 06:39:11;;;;;;;24.05;19.92;;;16.70;99.90;;;;;;4994048;28;20517;-86
2021/09/11 06:41:38;;;;;;;22.13;19.63;;;16.90;99.90;;;;;;4994089;28;20050;-86
2021/09/11 06:44:05;;;;;;;19.52;17.42;;;17.10;99.90;;;;;;4994766;28;20050;-86
2021/09/11 06:46:32;;;;;;;22.85;20.48;;;17.30;99.90;;;;;;4994975;28;20384;-86
2021/09/11 06:48:59;;;;;;;21.48;18.85;;;17.50;99.90;;;;;;4994811;28;20060;-86
2021/09/11 06:51:26;;;;;;;18.33;16.50;;;17.70;99.90;;;;;;4993902;28;20065;-87
2021/09/11 06:53:53;;;;;;;16.85;15.20;;;17.90;99.90;;;;;;4994794;28;20060;-86
2021/09/11 06:56:20;;;;;;;16.80;14.20;;;18.10;99.90;;;;;;4994544;28;20050;-86
2021/09/11 06:58:47;;;;;;;15.88;14.13;;;18.30;99.90;;;;;;4993740;28;20046;-87
2021/09/11 07:01:14;;;;;;;13.60;12.13;;;18.40;99.90;;;;;;4993712;28;20479;-86
2021/09/11 07:03:42;;;;;;;12.57;11.40;;;18.50;99.90;;;;;;4993757;28;20054;-86
2021/09/11 07:06:13;;;;;;;14.63;12.43;;;18.50;99.90;;;;;;4993582;28;20053;-86
2021/09/11 07:08:40;;;;;;;15.27;12.35;;;18.50;99.90;;;;;;4993479;28;20051;-85
2021/09/11 07:11:11;;;;;;;14.30;12.88;;;18.60;99.90;;;;;;4994413;28;20046;-85
2021/09/11 07:13:38;;;;;;;12.75;11.55;;;18.70;99.90;;;;;;4993391;28;20056;-85
2021/09/11 07:16:06;;;;;;;12.60;11.48;;;18.80;99.90;;;;;;4994496;28;20043;-85
2021/09/11 07:18:34;;;;;;;13.10;11.35;;;19.00;99.90;;;;;;4998590;28;20069;-85
2021/09/11 07:21:02;;;;;;;13.52;11.70;;;19.30;99.90;;;;;;5005833;28;20050;-86
2021/09/11 07:23:29;;;;;;;13.55;11.38;;;19.60;99.90;;;;;;4992851;28;20100;-86
2021/09/11 07:25:56;;;;;;;12.30;11.10;;;19.90;99.90;;;;;;4992927;28;20360;-86
2021/09/11 07:28:23;;;;;;;14.63;11.35;;;20.30;99.90;;;;;;4992828;28;20072;-86
2021/09/11 07:30:49;;;;;;;15.90;11.32;;;20.60;99.90;;;;;;4992737;28;20435;-86
2021/09/11 07:33:16;;;;;;;16.58;10.98;;;20.40;99.90;;;;;;4992363;28;20050;-86
2021/09/11 07:35:43;;;;;;;14.80;11.38;;;20.50;99.90;;;;;;4992441;28;20046;-87
2021/09/11 07:38:11;;;;;;;15.90;12.43;;;20.60;99.90;;;;;;4993664;28;20042;-86
2021/09/11 07:40:38;;;;;;;15.18;13.23;;;21.00;99.90;;;;;;4992640;28;20133;-86
2021/09/11 07:43:05;;;;;;;11.65;10.35;;;20.80;99.90;;;;;;4993573;28;20043;-86
2021/09/11 07:45:32;;;;;;;15.25;10.95;;;20.80;99.90;;;;;;4993659;28;20050;-86
2021/09/11 07:47:58;;;;;;;18.83;11.85;;;20.90;99.90;;;;;;4992874;28;20046;-86
2021/09/11 07:50:28;;;;;;;10.57;9.68;;;20.90;99.90;;;;;;4993845;28;20050;-86
2021/09/11 07:52:55;;;;;;;11.88;9.63;;;21.20;99.90;;;;;;4993473;28;20571;-86
2021/09/11 07:55:22;;;;;;;11.25;9.52;;;21.70;99.90;;;;;;4993378;28;20057;-85
2021/09/11 07:57:49;;;;;;;10.77;9.63;;;22.50;99.90;;;;;;4992936;28;20052;-85
2021/09/11 08:00:19;;;;;;;8.95;8.00;;;23.60;99.90;;;;;;4992810;28;20420;-86
2021/09/11 08:02:46;;;;;;;9.30;7.15;;;25.00;99.90;;;;;;4992620;28;20595;-86
2021/09/11 08:05:13;;;;;;;9.43;5.82;;;26.80;99.90;;;;;;4993242;28;20423;-85
2021/09/11 08:07:40;;;;;;;6.40;5.75;;;29.30;99.90;;;;;;4992453;28;20055;-85
2021/09/11 08:10:08;;;;;;;7.60;6.30;;;31.60;99.90;;;;;;4992387;28;20057;-86
2021/09/11 08:12:35;;;;;;;6.00;5.40;;;32.80;99.90;;;;;;4993148;28;20125;-85
2021/09/11 08:15:03;;;;;;;5.38;4.90;;;32.90;98.00;;;;;;4992041;28;20089;-85
2021/09/11 08:17:30;;;;;;;6.38;4.57;;;32.60;97.40;;;;;;4992561;28;20042;-84
2021/09/11 08:19:57;;;;;;;7.38;4.78;;;32.80;97.00;;;;;;4992169;28;20061;-86
2021/09/11 08:22:24;;;;;;;7.80;4.20;;;32.70;97.20;;;;;;4992094;28;20051;-85
2021/09/11 08:24:51;;;;;;;2.92;2.83;;;34.00;96.40;;;;;;4991985;28;20053;-85
2021/09/11 08:27:18;;;;;;;3.00;2.80;;;34.90;91.80;;;;;;4992301;28;20129;-86
2021/09/11 08:29:45;;;;;;;3.50;2.38;;;36.70;85.40;;;;;;4992309;28;20487;-85
2021/09/11 08:32:11;;;;;;;5.40;3.13;;;35.00;82.70;;;;;;4991941;28;20423;-84
2021/09/11 08:34:38;;;;;;;2.40;2.30;;;34.90;83.10;;;;;;4992994;28;20146;-84
2021/09/11 08:37:05;;;;;;;2.53;2.30;;;35.80;81.80;;;;;;4992849;28;20133;-84
2021/09/11 08:39:32;;;;;;;2.30;2.20;;;37.00;75.90;;;;;;4992659;28;20046;-85
2021/09/11 08:42:00;;;;;;;2.30;2.20;;;36.30;77.00;;;;;;4993041;28;20073;-84
2021/09/11 08:44:28;;;;;;;1.90;1.80;;;35.40;73.50;;;;;;4992685;28;20050;-84
2021/09/11 08:46:55;;;;;;;1.88;1.88;;;35.00;76.00;;;;;;4996265;28;20042;-85
2021/09/11 08:49:23;;;;;;;1.75;1.65;;;35.80;75.70;;;;;;4996764;28;20050;-84
2021/09/11 08:51:51;;;;;;;1.95;1.83;;;34.90;76.50;;;;;;4995554;28;20042;-84
2021/09/11 08:54:21;;;;;;;4.10;2.10;;;35.70;74.80;;;;;;4996726;28;20127;-86
2021/09/11 08:56:49;;;;;;;2.67;1.80;;;35.90;73.10;;;;;;4996249;28;20046;-86
2021/09/11 08:59:19;;;;;;;3.03;1.92;;;37.60;71.10;;;;;;4995141;28;20272;-86
2021/09/11 09:02:05;;;;;;;1.90;1.80;;;38.20;67.10;;;;;;4995544;28;20128;-85
2021/09/11 09:04:49;;;;;;;1.85;1.75;;;38.60;66.70;;;;;;4995761;28;20050;-87
2021/09/11 09:07:32;;;;;;;2.92;1.92;;;38.10;61.70;;;;;;5003459;28;20054;-87
2021/09/11 09:10:01;;;;;;;2.13;1.98;;;37.60;64.10;;;;;;4998847;28;20089;-85
2021/09/11 09:12:33;;;;;;;2.00;1.90;;;37.20;65.60;;;;;;4999142;28;20052;-88
2021/09/11 09:15:07;;;;;;;2.58;1.85;;;37.70;64.20;;;;;;4998414;28;20404;-86
2021/09/11 09:17:49;;;;;;;2.72;1.80;;;38.00;62.50;;;;;;4998679;28;20066;-86
2021/09/11 09:20:22;;;;;;;2.10;2.00;;;37.10;63.40;;;;;;4998475;28;20056;-85
2021/09/11 09:23:00;;;;;;;2.58;1.90;;;36.00;65.10;;;;;;4998563;28;20052;-85
2021/09/11 09:25:32;;;;;;;3.15;2.88;;;35.60;66.20;;;;;;4998639;28;20457;-85
2021/09/11 09:28:10;;;;;;;3.53;2.38;;;35.20;66.60;;;;;;4998739;28;20120;-85
2021/09/11 09:30:37;;;;;;;2.35;2.15;;;34.40;68.30;;;;;;4998314;28;20140;-86
2021/09/11 09:33:06;;;;;;;2.50;2.40;;;33.80;70.00;;;;;;4998393;28;20050;-85
2021/09/11 09:35:34;;;;;;;2.65;2.50;;;32.80;72.70;;;;;;4998068;28;20054;-85
2021/09/11 09:38:06;;;;;;;3.85;2.60;;;32.30;73.00;;;;;;4998355;28;20052;-87
2021/09/11 09:40:34;;;;;;;3.40;2.85;;;32.40;72.60;;;;;;5015718;28;20406;-84
2021/09/11 09:43:02;;;;;;;2.25;2.15;;;31.40;74.80;;;;;;4997930;28;20470;-85
2021/09/11 09:45:30;;;;;;;2.42;2.33;;;30.30;78.60;;;;;;4998021;28;20058;-86
2021/09/11 09:48:02;;;;;;;13.82;3.13;;;31.00;79.70;;;;;;4998457;28;20060;-85
2021/09/11 09:50:31;;;;;;;2.55;2.45;;;31.80;77.40;;;;;;4998649;28;20060;-86
2021/09/11 09:52:59;;;;;;;4.03;2.33;;;33.10;74.20;;;;;;4998013;28;20418;-85
2021/09/11 09:55:26;;;;;;;2.70;2.50;;;33.10;73.30;;;;;;4997808;28;20060;-85
2021/09/11 09:57:54;;;;;;;2.75;2.15;;;32.80;74.50;;;;;;5020584;28;20128;-84
2021/09/11 10:00:21;;;;;;;1.95;1.85;;;33.20;74.00;;;;;;5023617;28;20176;-86
2021/09/11 10:02:48;;;;;;;5.10;3.58;;;35.30;70.80;;;;;;4998086;28;20422;-87
2021/09/11 10:05:19;;;;;;;2.08;1.98;;;36.60;67.70;;;;;;4998605;28;20069;-86
2021/09/11 10:07:59;;;;;;;2.53;2.30;;;36.70;66.00;;;;;;4997760;28;20061;-86
2021/09/11 10:10:31;;;;;;;2.20;2.03;;;36.10;66.20;;;;;;4998111;28;20088;-86
2021/09/11 10:13:09;;;;;;;3.00;1.90;;;37.00;62.40;;;;;;4997762;28;20081;-86
2021/09/11 10:15:58;;;;;;;1.98;1.88;;;37.30;61.30;;;;;;4997677;28;20513;-84
2021/09/11 10:18:32;;;;;;;2.25;2.00;;;35.30;63.30;;;;;;4997695;28;20100;-85
2021/09/11 10:21:12;;;;;;;2.30;2.10;;;34.20;66.70;;;;;;4997124;28;20411;-85
2021/09/11 10:23:55;;;;;;;2.80;1.55;;;33.20;67.80;;;;;;5014654;28;20060;-86
2021/09/11 10:26:48;;;;;;;1.52;1.42;;;32.70;68.80;;;;;;4997477;28;20056;-86
2021/09/11 10:29:33;;;;;;;1.60;1.50;;;32.00;68.40;;;;;;5014507;28;20052;-85
2021/09/11 10:32:01;;;;;;;1.95;1.40;;;30.90;72.50;;;;;;4997339;28;20054;-85
2021/09/11 10:34:51;;;;;;;1.30;1.30;;;29.80;75.70;;;;;;4997028;28;20052;-85
2021/09/11 10:37:37;;;;;;;3.22;1.55;;;29.90;76.00;;;;;;5014591;28;20093;-86
2021/09/11 10:40:14;;;;;;;5.28;1.50;;;29.90;74.30;;;;;;4997153;28;20054;-85
2021/09/11 10:43:15;;;;;;;2.00;1.63;;;29.20;76.80;;;;;;4997652;28;20057;-86
2021/09/11 10:45:53;;;;;;;2.58;1.75;;;28.60;81.10;;;;;;4996042;28;20068;-84
2021/09/11 10:48:42;;;;;;;2.08;1.92;;;28.00;84.50;;;;;;4996956;28;20088;-85
2021/09/11 10:51:16;;;;;;;1.90;1.80;;;27.60;87.40;;;;;;4996833;28;20056;-85
2021/09/11 10:54:09;;;;;;;1.67;1.67;;;27.60;89.40;;;;;;4997108;28;20132;-87
2021/09/11 10:56:39;;;;;;;1.83;1.73;;;27.90;90.00;;;;;;4996739;28;20101;-87
2021/09/11 10:59:15;;;;;;;2.00;1.90;;;27.70;90.00;;;;;;4996771;28;20129;-87
2021/09/11 11:01:58;;;;;;;5.63;2.40;;;27.30;90.90;;;;;;4996951;28;20056;-85
2021/09/11 11:04:36;;;;;;;2.00;1.90;;;26.90;93.00;;;;;;4996599;28;20093;-86
2021/09/11 11:07:11;;;;;;;2.17;1.98;;;27.30;96.70;;;;;;4996670;28;20494;-85
2021/09/11 11:09:45;;;;;;;2.22;1.45;;;26.90;95.80;;;;;;4996268;28;20056;-89
2021/09/11 11:12:27;;;;;;;1.40;1.40;;;26.70;95.00;;;;;;4997050;28;20050;-85
2021/09/11 11:15:01;;;;;;;1.77;1.70;;;26.40;96.00;;;;;;4996939;28;20069;-85
2021/09/11 11:17:29;;;;;;;1.80;1.70;;;26.40;99.30;;;;;;5000739;28;20050;-86
2021/09/11 11:19:57;;;;;;;1.60;1.50;;;26.10;98.20;;;;;;5017884;28;20082;-86
2021/09/11 11:22:35;;;;;;;1.83;1.60;;;25.60;99.90;;;;;;5014173;28;20054;-85
2021/09/11 11:25:04;;;;;;;1.77;1.70;;;25.50;99.90;;;;;;5013766;28;20140;-87
2021/09/11 11:27:31;;;;;;;2.10;2.00;;;25.50;99.90;;;;;;4996426;28;20132;-89
2021/09/11 11:29:59;;;;;;;4.63;2.05;;;25.30;99.90;;;;;;4996811;28;20414;-84
2021/09/11 11:32:38;;;;;;;2.00;1.90;;;24.90;99.90;;;;;;4996236;28;20052;-87
2021/09/11 11:35:06;;;;;;;1.58;1.48;;;24.90;99.90;;;;;;4996335;28;20049;-85
2021/09/11 11:37:36;;;;;;;1.80;1.70;;;25.30;99.90;;;;;;4996162;28;20129;-84
2021/09/11 11:40:08;;;;;;;1.88;1.77;;;26.20;99.90;;;;;;4996243;28;20140;-86
2021/09/11 11:42:35;;;;;;;3.22;1.77;;;26.40;99.90;;;;;;4996230;28;20050;-85
2021/09/11 11:45:07;;;;;;;2.72;1.50;;;26.20;99.90;;;;;;4996108;28;20045;-83
2021/09/11 11:48:12;;;;;;;1.55;1.45;;;26.40;99.90;;;;;;4996409;28;20049;-85
2021/09/11 11:50:41;;;;;;;1.83;1.65;;;26.70;99.90;;;;;;4996604;28;20054;-88
2021/09/11 11:53:14;;;;;;;8.13;2.25;;;27.10;99.90;;;;;;4996347;28;20431;-85
2021/09/11 11:55:52;;;;;;;1.40;1.40;;;27.70;99.90;;;;;;4996549;28;20491;-87
2021/09/11 11:58:23;;;;;;;1.70;1.70;;;28.00;99.10;;;;;;4996117;28;20046;-87
2021/09/11 12:00:52;;;;;;;1.40;1.40;;;27.80;97.90;;;;;;4996058;28;20115;-86
2021/09/11 12:03:34;;;;;;;1.75;1.65;;;27.50;99.90;;;;;;4994747;28;20097;-85
2021/09/11 12:06:03;;;;;;;1.83;1.73;;;27.50;99.40;;;;;;4996439;28;20046;-85
2021/09/11 12:08:36;;;;;;;1.70;1.60;;;27.70;99.10;;;;;;4995953;28;20058;-85
2021/09/11 12:11:04;;;;;;;1.88;1.75;;;27.90;98.70;;;;;;4996270;28;20470;-86
2021/09/11 12:13:31;;;;;;;2.80;1.70;;;28.00;97.70;;;;;;4996254;28;20045;-85
2021/09/11 12:15:59;;;;;;;3.15;1.90;;;27.90;98.80;;;;;;5013253;28;20066;-86
2021/09/11 12:18:33;;;;;;;1.95;1.75;;;28.20;97.00;;;;;;5013228;28;20050;-86
2021/09/11 12:21:09;;;;;;;1.63;1.52;;;28.20;98.00;;;;;;5015703;28;20046;-86
2021/09/11 12:23:38;;;;;;;2.83;1.30;;;28.10;96.50;;;;;;4999612;28;20054;-90
2021/09/11 12:26:07;;;;;;;1.45;1.35;;;27.70;96.00;;;;;;4999811;28;20050;-89
2021/09/11 12:28:43;;;;;;;1.50;1.50;;;27.10;96.60;;;;;;5000477;28;20097;-86
2021/09/11 12:31:19;;;;;;;1.50;1.50;;;26.90;97.90;;;;;;5017217;28;20046;-88
2021/09/11 12:33:53;;;;;;;1.40;1.38;;;26.90;97.70;;;;;;5000000;28;20089;-88
2021/09/11 12:36:43;;;;;;;1.60;1.60;;;26.90;96.70;;;;;;5000305;28;20407;-86
2021/09/11 12:39:15;;;;;;;1.42;1.20;;;26.80;98.20;;;;;;5009666;28;20049;-86
2021/09/11 12:41:45;;;;;;;1.65;1.50;;;26.70;99.60;;;;;;5017718;28;20128;-87
2021/09/11 12:44:12;;;;;;;1.98;1.35;;;26.70;99.80;;;;;;5000597;28;20477;-85